Point Pleasant Beach, NJ

10:03 PM EST on Prosinac 09, 2016 (GMT -0500)
Jersey Shore Wx Center | | Change Station

Elev 13 ft 40.09 °N, 74.05 °W | Updated 2 seconds ago

Vedro
Vedro
31.1 °F
Feels Like 31 °F
S
0.0
Vjetar Varijabla smjera vjetra Vjetar from SZ

Danas
High -- | Low -- °F
--% Chance of Precip.
Jučer
High -- | Low -- °F
Precip. -- u
Pritisak 30.34 u
Vidljivost 10.0 milja
Oblaci Vedro
Subjektivni osjećaj 31 °F
Točka rose 24 °F
Vlažnost 73%
Kiša 0.00 u
Visina snijega Not available.
7:06 AM 4:30 PM
Uštap, 79% visible
METAR KBLM 100256Z AUTO 30008KT 10SM CLR M02/M07 A3032 RMK AO2 SLP272 T10221072 53018 FZRANO
Pritisak 30.34 u
Vidljivost 10.0 milja
Oblaci Vedro
Subjektivni osjećaj 31 °F
Točka rose 24 °F
Vlažnost 73%
Kiša 0.00 u
Visina snijega Not available.
7:06 AM 4:30 PM
Uštap, 79% visible
METAR KBLM 100256Z AUTO 30008KT 10SM CLR M02/M07 A3032 RMK AO2 SLP272 T10221072 53018 FZRANO

10-Day Weather Forecast

Almanac

Astronomija

Dec. 09, 2016 Izlazak Zalazak
Trenutno vrijeme
Civilni sumrak
Nautički sumrak
Astronomski sumrak
Moon
Duljina trajanja vidljive svjetlosti
Duljina dana
Tomorrow will be .
, % of the Moon is Illuminated

Današnji ekstremi

State Highs State Lows

Community

WunderPhotos

Upload Photos

1,956,532 photos uploaded!

WunderBlog® & News

Nearby

Kvalitet zraka

  Kvalitet zraka AQ Index Zagadjenje
Not available.

Visina snijega

Station Depth Visina

Earthquake Activity

Grad Distance Mag. Time & Date
Minimum magnitude displayed is 2.5.

Coastal Water Temperatures

Mjesto Temperatura

Stations

Nearby Weather Stations

Lokacija stanice Temp. Subjektivni osjećaj Točka rose Vlažnost Vjetar Precip. Elev Ažurirano Tip
                   

Watches & Warnings

There are currently no watches in effect.